createdAt,value
2016-06-07T00:00:56.541Z,970.04
2016-06-07T00:01:56.544Z,970.08
2016-06-07T00:02:56.547Z,970.1
2016-06-07T00:03:56.548Z,970.1
2016-06-07T00:04:56.552Z,970.1
2016-06-07T00:05:56.538Z,970.15
2016-06-07T00:06:56.541Z,970.12
2016-06-07T00:07:56.543Z,970.14
2016-06-07T00:08:56.546Z,970.16
2016-06-07T00:09:56.549Z,970.16
2016-06-07T00:10:56.568Z,970.12
2016-06-07T00:11:56.555Z,970.12
2016-06-07T00:12:56.854Z,970.12
2016-06-07T00:13:56.559Z,970.11
2016-06-07T00:14:56.562Z,970.16
2016-06-07T00:15:56.565Z,970.21
2016-06-07T00:16:56.553Z,970.17
2016-06-07T00:17:56.570Z,970.19
2016-06-07T00:18:56.558Z,970.21
2016-06-07T00:19:56.561Z,970.18
2016-06-07T00:20:56.564Z,970.17
2016-06-07T00:21:56.567Z,970.17
2016-06-07T00:22:56.569Z,970.16
2016-06-07T00:23:56.571Z,970.15
2016-06-07T00:24:56.574Z,970.17
2016-06-07T00:25:56.577Z,970.19
2016-06-07T00:26:56.579Z,970.17
2016-06-07T00:27:56.583Z,970.19
2016-06-07T00:28:56.586Z,970.24
2016-06-07T00:29:56.572Z,970.23
2016-06-07T00:30:56.574Z,970.25
2016-06-07T00:31:56.577Z,970.23
2016-06-07T00:32:56.580Z,970.24
2016-06-07T00:33:56.583Z,970.23
2016-06-07T00:34:56.585Z,970.22
2016-06-07T00:35:56.588Z,970.23
2016-06-07T00:36:56.590Z,970.17
2016-06-07T00:37:56.594Z,970.15
2016-06-07T00:38:56.580Z,970.17
2016-06-07T00:39:56.598Z,970.14
2016-06-07T00:40:56.585Z,970.16
2016-06-07T00:41:56.588Z,970.13
2016-06-07T00:42:56.591Z,970.15
2016-06-07T00:43:56.593Z,970.11
2016-06-07T00:44:56.596Z,970.11
2016-06-07T00:45:56.599Z,970.08
2016-06-07T00:46:56.602Z,970.11
2016-06-07T00:47:56.604Z,970.13
2016-06-07T00:48:56.607Z,970.14
2016-06-07T00:49:56.594Z,970.11
2016-06-07T00:50:56.612Z,970.1
2016-06-07T00:51:56.615Z,970.08
2016-06-07T00:52:56.603Z,970.12
2016-06-07T00:53:56.605Z,970.08
2016-06-07T00:54:56.608Z,970.08
2016-06-07T00:55:56.611Z,970.1
2016-06-07T00:56:56.614Z,970.1
2016-06-07T00:57:56.616Z,970.06
2016-06-07T00:58:56.619Z,970.05
2016-06-07T00:59:56.622Z,970.06
2016-06-07T01:00:56.624Z,970.06
2016-06-07T01:01:56.611Z,970.1
2016-06-07T01:02:56.630Z,970.06
2016-06-07T01:03:56.616Z,970.06
2016-06-07T01:04:56.619Z,970.06
2016-06-07T01:05:57.043Z,970.07
2016-06-07T01:06:56.983Z,970.07
2016-06-07T01:07:56.627Z,970.13
2016-06-07T01:08:56.630Z,970.15
2016-06-07T01:09:56.633Z,970.15
2016-06-07T01:10:56.635Z,970.14
2016-06-07T01:11:56.637Z,970.16
2016-06-07T01:12:56.624Z,970.18
2016-06-07T01:13:56.627Z,970.18
2016-06-07T01:14:56.630Z,970.17
2016-06-07T01:15:56.632Z,970.17
2016-06-07T01:16:56.635Z,970.19
2016-06-07T01:17:56.638Z,970.19
2016-06-07T01:18:56.640Z,970.2
2016-06-07T01:19:56.643Z,970.17
2016-06-07T01:20:56.631Z,970.2
2016-06-07T01:21:56.634Z,970.17
2016-06-07T01:22:56.636Z,970.18
2016-06-07T01:23:56.639Z,970.18
2016-06-07T01:24:56.641Z,970.19
2016-06-07T01:25:56.645Z,970.17
2016-06-07T01:26:56.647Z,970.13
2016-06-07T01:27:56.650Z,970.15
2016-06-07T01:28:56.652Z,970.1
2016-06-07T01:29:56.655Z,970.19
2016-06-07T01:30:56.658Z,970.14
2016-06-07T01:31:56.645Z,970.17
2016-06-07T01:32:56.663Z,970.14
2016-06-07T01:33:56.650Z,970.13
2016-06-07T01:34:56.652Z,970.1
2016-06-07T01:35:56.656Z,970.13
2016-06-07T01:36:56.674Z,970.11
2016-06-07T01:37:56.661Z,970.13
2016-06-07T01:38:56.663Z,970.12
2016-06-07T01:39:56.666Z,970.11
2016-06-07T01:40:56.669Z,970.18
2016-06-07T01:41:56.672Z,970.19
2016-06-07T01:42:56.659Z,970.18
2016-06-07T01:43:56.661Z,970.22
2016-06-07T01:44:56.664Z,970.21
2016-06-07T01:45:56.667Z,970.23
2016-06-07T01:46:56.669Z,970.22
2016-06-07T01:47:56.676Z,970.23
2016-06-07T01:48:56.694Z,970.23
2016-06-07T01:49:56.711Z,970.28
2016-06-07T01:50:56.729Z,970.28
2016-06-07T01:51:57.527Z,970.29
2016-06-07T01:52:56.746Z,970.26
2016-06-07T01:53:56.754Z,970.28
2016-06-07T01:54:56.778Z,970.29
2016-06-07T01:55:56.771Z,970.35
2016-06-07T01:56:56.778Z,970.32
2016-06-07T01:57:56.786Z,970.33
2016-06-07T01:58:56.790Z,970.32
2016-06-07T01:59:56.794Z,970.34
2016-06-07T02:00:56.799Z,970.31
2016-06-07T02:01:56.788Z,970.3
2016-06-07T02:02:56.792Z,970.29
2016-06-07T02:03:56.812Z,970.3
2016-06-07T02:04:56.800Z,970.3
2016-06-07T02:05:56.803Z,970.3
2016-06-07T02:06:56.806Z,970.32
2016-06-07T02:07:56.810Z,970.32
2016-06-07T02:08:56.813Z,970.32
2016-06-07T02:09:56.816Z,970.29
2016-06-07T02:10:56.818Z,970.31
2016-06-07T02:11:56.807Z,970.29
2016-06-07T02:12:56.966Z,970.29
2016-06-07T02:13:56.813Z,970.29
2016-06-07T02:14:56.815Z,970.3
2016-06-07T02:15:56.818Z,970.33
2016-06-07T02:16:56.820Z,970.32
2016-06-07T02:17:56.820Z,970.32
2016-06-07T02:18:56.808Z,970.3
2016-06-07T02:19:56.826Z,970.3
2016-06-07T02:20:56.813Z,970.27
2016-06-07T02:21:56.815Z,970.29
2016-06-07T02:22:56.818Z,970.26
2016-06-07T02:23:56.821Z,970.27
2016-06-07T02:24:56.824Z,970.28
2016-06-07T02:25:56.826Z,970.28
2016-06-07T02:26:56.829Z,970.3
2016-06-07T02:27:56.832Z,970.31
2016-06-07T02:28:56.834Z,970.32
2016-06-07T02:29:56.837Z,970.35
2016-06-07T02:30:56.823Z,970.31
2016-06-07T02:31:56.826Z,970.3
2016-06-07T02:32:56.829Z,970.31
2016-06-07T02:33:56.832Z,970.27
2016-06-07T02:34:56.835Z,970.32
2016-06-07T02:35:56.837Z,970.31
2016-06-07T02:36:56.840Z,970.29
2016-06-07T02:37:56.827Z,970.32
2016-06-07T02:38:56.830Z,970.31
2016-06-07T02:39:56.833Z,970.3
2016-06-07T02:40:56.836Z,970.32
2016-06-07T02:41:56.838Z,970.3
2016-06-07T02:42:56.841Z,970.32
2016-06-07T02:43:56.844Z,970.32
2016-06-07T02:44:56.846Z,970.3
2016-06-07T02:45:56.849Z,970.29
2016-06-07T02:46:56.852Z,970.29
2016-06-07T02:47:56.838Z,970.31
2016-06-07T02:48:56.841Z,970.3
2016-06-07T02:49:56.843Z,970.35
2016-06-07T02:50:56.847Z,970.39
2016-06-07T02:51:56.850Z,970.4
2016-06-07T02:52:56.851Z,970.39
2016-06-07T02:53:56.855Z,970.39
2016-06-07T02:54:56.857Z,970.41
2016-06-07T02:55:56.845Z,970.36
2016-06-07T02:56:56.863Z,970.37
2016-06-07T02:57:56.850Z,970.4
2016-06-07T02:58:56.853Z,970.37
2016-06-07T02:59:56.856Z,970.36
2016-06-07T03:00:56.874Z,970.34
2016-06-07T03:01:56.861Z,970.35
2016-06-07T03:02:56.864Z,970.39
2016-06-07T03:03:56.866Z,970.39
2016-06-07T03:04:56.853Z,970.39
2016-06-07T03:05:56.856Z,970.41
2016-06-07T03:06:57.202Z,970.41
2016-06-07T03:07:56.861Z,970.43
2016-06-07T03:08:56.864Z,970.42
2016-06-07T03:09:56.867Z,970.47
2016-06-07T03:10:56.869Z,970.47
2016-06-07T03:11:56.872Z,970.47
2016-06-07T03:12:56.858Z,970.47
2016-06-07T03:13:56.877Z,970.48
2016-06-07T03:14:56.864Z,970.45
2016-06-07T03:15:56.866Z,970.47
2016-06-07T03:16:56.869Z,970.46
2016-06-07T03:17:56.872Z,970.5
2016-06-07T03:18:56.875Z,970.52
2016-06-07T03:19:56.878Z,970.51
2016-06-07T03:20:56.880Z,970.49
2016-06-07T03:21:56.883Z,970.52
2016-06-07T03:22:56.871Z,970.52
2016-06-07T03:23:56.873Z,970.57
2016-06-07T03:24:56.876Z,970.57
2016-06-07T03:25:56.879Z,970.54
2016-06-07T03:26:56.882Z,970.6
2016-06-07T03:27:56.884Z,970.59
2016-06-07T03:28:56.887Z,970.59
2016-06-07T03:29:56.889Z,970.59
2016-06-07T03:30:56.892Z,970.58
2016-06-07T03:31:56.879Z,970.59
2016-06-07T03:32:56.882Z,970.63
2016-06-07T03:33:56.884Z,970.67
2016-06-07T03:34:56.887Z,970.62
2016-06-07T03:35:56.889Z,970.7
2016-06-07T03:36:56.923Z,970.7
2016-06-07T03:37:56.895Z,970.72
2016-06-07T03:38:56.897Z,970.69
2016-06-07T03:39:56.884Z,970.69
2016-06-07T03:40:56.887Z,970.68
2016-06-07T03:41:56.890Z,970.72
2016-06-07T03:42:56.892Z,970.75
2016-06-07T03:43:56.895Z,970.77
2016-06-07T03:44:56.898Z,970.75
2016-06-07T03:45:56.900Z,970.76
2016-06-07T03:46:56.903Z,970.8
2016-06-07T03:47:56.906Z,970.78
2016-06-07T03:48:56.908Z,970.75
2016-06-07T03:49:56.896Z,970.76
2016-06-07T03:50:56.914Z,970.83
2016-06-07T03:51:57.589Z,970.82
2016-06-07T03:52:56.904Z,970.82
2016-06-07T03:53:56.907Z,970.86
2016-06-07T03:54:56.910Z,970.86
2016-06-07T03:55:56.912Z,970.88
2016-06-07T03:56:56.915Z,970.86
2016-06-07T03:57:56.917Z,970.91
2016-06-07T03:58:56.904Z,970.94
2016-06-07T03:59:56.907Z,970.91
2016-06-07T04:00:56.910Z,970.92
2016-06-07T04:01:56.913Z,970.94
2016-06-07T04:02:56.915Z,970.94
2016-06-07T04:03:56.918Z,970.99
2016-06-07T04:04:56.920Z,971.03
2016-06-07T04:05:56.923Z,971.05
2016-06-07T04:06:56.926Z,971.03
2016-06-07T04:07:56.929Z,971.08
2016-06-07T04:08:56.916Z,971.1
2016-06-07T04:09:56.934Z,971.09
2016-06-07T04:10:56.922Z,971.1
2016-06-07T04:11:56.924Z,971.05
2016-06-07T04:12:57.036Z,971.08
2016-06-07T04:13:56.930Z,971.1
2016-06-07T04:14:56.933Z,971.11
2016-06-07T04:15:56.935Z,971.12
2016-06-07T04:16:56.937Z,971.14
2016-06-07T04:17:56.941Z,971.18
2016-06-07T04:18:56.944Z,971.19
2016-06-07T04:19:56.946Z,971.22
2016-06-07T04:20:56.948Z,971.2
2016-06-07T04:21:57.451Z,971.25
2016-06-07T04:22:56.954Z,971.23
2016-06-07T04:23:56.957Z,971.28
2016-06-07T04:24:56.960Z,971.28
2016-06-07T04:25:56.946Z,971.31
2016-06-07T04:26:56.964Z,971.34
2016-06-07T04:27:56.968Z,971.3
2016-06-07T04:28:56.970Z,971.32
2016-06-07T04:29:56.973Z,971.35
2016-06-07T04:30:56.959Z,971.33
2016-06-07T04:31:56.979Z,971.33
2016-06-07T04:32:56.965Z,971.4
2016-06-07T04:33:56.983Z,971.36
2016-06-07T04:34:56.987Z,971.37
2016-06-07T04:35:56.988Z,971.35
2016-06-07T04:36:56.992Z,971.37
2016-06-07T04:37:56.994Z,971.36
2016-06-07T04:38:56.997Z,971.38
2016-06-07T04:39:56.999Z,971.37
2016-06-07T04:40:57.003Z,971.34
2016-06-07T04:41:57.005Z,971.34
2016-06-07T04:42:57.008Z,971.35
2016-06-07T04:43:57.010Z,971.39
2016-06-07T04:44:57.014Z,971.39
2016-06-07T04:45:57.015Z,971.35
2016-06-07T04:46:57.018Z,971.33
2016-06-07T04:47:57.021Z,971.32
2016-06-07T04:48:57.024Z,971.33
2016-06-07T04:49:57.027Z,971.31
2016-06-07T04:50:57.029Z,971.34
2016-06-07T04:51:57.047Z,971.39
2016-06-07T04:52:57.034Z,971.38
2016-06-07T04:53:57.037Z,971.38
2016-06-07T04:54:57.040Z,971.42
2016-06-07T04:55:57.058Z,971.45
2016-06-07T04:56:57.060Z,971.43
2016-06-07T04:57:57.063Z,971.43
2016-06-07T04:58:57.066Z,971.45
2016-06-07T04:59:57.069Z,971.46
2016-06-07T05:00:57.071Z,971.44
2016-06-07T05:01:57.074Z,971.44
2016-06-07T05:02:57.076Z,971.43
2016-06-07T05:03:57.095Z,971.49
2016-06-07T05:04:57.098Z,971.48
2016-06-07T05:05:57.101Z,971.47
2016-06-07T05:06:57.104Z,971.52
2016-06-07T05:07:57.106Z,971.51
2016-06-07T05:08:57.109Z,971.54
2016-06-07T05:09:57.111Z,971.49
2016-06-07T05:10:57.114Z,971.49
2016-06-07T05:11:57.132Z,971.5
2016-06-07T05:12:57.134Z,971.5
2016-06-07T05:13:57.137Z,971.52
2016-06-07T05:14:57.140Z,971.57
2016-06-07T05:15:57.143Z,971.58
2016-06-07T05:16:57.145Z,971.62
2016-06-07T05:17:57.163Z,971.6
2016-06-07T05:18:57.167Z,971.58
2016-06-07T05:19:57.169Z,971.58
2016-06-07T05:20:57.172Z,971.55
2016-06-07T05:21:57.658Z,971.58
2016-06-07T05:22:57.194Z,971.62
2016-06-07T05:23:57.180Z,971.65
2016-06-07T05:24:57.199Z,971.64
2016-06-07T05:25:57.201Z,971.66
2016-06-07T05:26:57.219Z,971.66
2016-06-07T05:27:57.207Z,971.67
2016-06-07T05:28:57.210Z,971.69
2016-06-07T05:29:57.212Z,971.72
2016-06-07T05:30:57.229Z,971.71
2016-06-07T05:31:57.232Z,971.8
2016-06-07T05:32:57.235Z,971.76
2016-06-07T05:33:57.238Z,971.72
2016-06-07T05:34:57.241Z,971.76
2016-06-07T05:35:57.260Z,971.74
2016-06-07T05:36:57.387Z,971.72
2016-06-07T05:37:57.264Z,971.74
2016-06-07T05:38:57.268Z,971.71
2016-06-07T05:39:57.286Z,971.74
2016-06-07T05:40:57.289Z,971.75
2016-06-07T05:41:57.291Z,971.77
2016-06-07T05:42:57.309Z,971.79
2016-06-07T05:43:57.312Z,971.8
2016-06-07T05:44:57.331Z,971.84
2016-06-07T05:45:57.317Z,971.84
2016-06-07T05:46:57.336Z,971.84
2016-06-07T05:47:57.338Z,971.84
2016-06-07T05:48:57.341Z,971.85
2016-06-07T05:49:57.344Z,971.82
2016-06-07T05:50:57.361Z,971.84
2016-06-07T05:51:57.364Z,971.82
2016-06-07T05:52:57.367Z,971.8
2016-06-07T05:53:57.386Z,971.81
2016-06-07T05:54:57.389Z,971.84
2016-06-07T05:55:57.391Z,971.8
2016-06-07T05:56:57.410Z,971.81
2016-06-07T05:57:57.413Z,971.82
2016-06-07T05:58:57.416Z,971.81
2016-06-07T05:59:57.433Z,971.82
2016-06-07T06:00:57.435Z,971.81
2016-06-07T06:01:57.439Z,971.81
2016-06-07T06:02:57.457Z,971.84
2016-06-07T06:03:57.460Z,971.86
2016-06-07T06:04:57.462Z,971.84
2016-06-07T06:05:57.481Z,971.86
2016-06-07T06:06:57.484Z,971.9
2016-06-07T06:07:57.924Z,971.9
2016-06-07T06:08:57.504Z,971.89
2016-06-07T06:09:57.507Z,971.9
2016-06-07T06:10:57.526Z,971.88
2016-06-07T06:11:57.528Z,971.85
2016-06-07T06:12:57.828Z,971.89
2016-06-07T06:13:57.549Z,971.89
2016-06-07T06:14:57.551Z,971.85
2016-06-07T06:15:57.570Z,971.9
2016-06-07T06:16:57.572Z,971.88
2016-06-07T06:17:57.576Z,971.86
2016-06-07T06:18:57.594Z,971.88
2016-06-07T06:19:57.597Z,971.93
2016-06-07T06:20:57.614Z,971.91
2016-06-07T06:21:57.617Z,971.9
2016-06-07T06:22:58.480Z,971.87
2016-06-07T06:23:57.670Z,971.87
2016-06-07T06:24:57.641Z,971.87
2016-06-07T06:25:57.660Z,971.87
2016-06-07T06:26:57.663Z,971.91
2016-06-07T06:27:57.680Z,971.83
2016-06-07T06:28:57.683Z,971.83
2016-06-07T06:29:57.685Z,971.84
2016-06-07T06:30:57.705Z,971.84
2016-06-07T06:31:57.707Z,971.84
2016-06-07T06:32:57.724Z,971.85
2016-06-07T06:33:57.728Z,971.9
2016-06-07T06:34:57.746Z,971.92
2016-06-07T06:35:57.748Z,971.98
2016-06-07T06:36:57.751Z,971.99
2016-06-07T06:37:57.785Z,972.02
2016-06-07T06:38:57.788Z,971.99
2016-06-07T06:39:57.790Z,972.02
2016-06-07T06:40:57.793Z,972.01
2016-06-07T06:41:57.811Z,971.99
2016-06-07T06:42:57.815Z,972
2016-06-07T06:43:57.818Z,971.98
2016-06-07T06:44:57.836Z,972
2016-06-07T06:45:57.853Z,972.03
2016-06-07T06:46:57.857Z,972.05
2016-06-07T06:47:57.859Z,972.03
2016-06-07T06:48:57.861Z,972.05
2016-06-07T06:49:57.881Z,972.05
2016-06-07T06:50:57.883Z,972.1
2016-06-07T06:51:57.901Z,972.08
2016-06-07T06:52:57.903Z,972.1
2016-06-07T06:53:57.907Z,972.08
2016-06-07T06:54:57.925Z,972.08
2016-06-07T06:55:57.927Z,972.1
2016-06-07T06:56:57.931Z,972.1
2016-06-07T06:57:57.949Z,972.08
2016-06-07T06:58:57.952Z,972.09
2016-06-07T06:59:57.969Z,972.09
2016-06-07T07:00:57.971Z,972.07
2016-06-07T07:01:57.975Z,972.14
2016-06-07T07:02:57.994Z,972.13
2016-06-07T07:03:57.996Z,972.15
2016-06-07T07:04:57.999Z,972.14
2016-06-07T07:05:58.018Z,972.14
2016-06-07T07:06:58.020Z,972.16
2016-06-07T07:07:58.038Z,972.16
2016-06-07T07:08:58.040Z,972.14
2016-06-07T07:09:58.043Z,972.15
2016-06-07T07:10:58.062Z,972.15
2016-06-07T07:11:58.064Z,972.16
2016-06-07T07:12:58.082Z,972.18
2016-06-07T07:13:58.085Z,972.14
2016-06-07T07:14:58.104Z,972.16
2016-06-07T07:15:58.106Z,972.15
2016-06-07T07:16:58.109Z,972.11
2016-06-07T07:17:58.128Z,972.13
2016-06-07T07:18:58.130Z,972.16
2016-06-07T07:19:58.148Z,972.17
2016-06-07T07:20:58.150Z,972.21
2016-06-07T07:21:58.170Z,972.2
2016-06-07T07:22:58.172Z,972.15
2016-06-07T07:23:58.174Z,972.15
2016-06-07T07:24:58.194Z,972.15
2016-06-07T07:25:58.196Z,972.21
2016-06-07T07:26:58.199Z,972.15
2016-06-07T07:27:58.216Z,972.21
2016-06-07T07:28:58.219Z,972.18
2016-06-07T07:29:58.238Z,972.19
2016-06-07T07:30:58.241Z,972.16
2016-06-07T07:31:58.243Z,972.13
2016-06-07T07:32:58.246Z,972.15
2016-06-07T07:33:58.249Z,972.14
2016-06-07T07:34:58.267Z,972.17
2016-06-07T07:35:58.269Z,972.18
2016-06-07T07:36:58.288Z,972.18
2016-06-07T07:37:58.291Z,972.16
2016-06-07T07:38:58.309Z,972.16
2016-06-07T07:39:58.311Z,972.21
2016-06-07T07:40:58.329Z,972.22
2016-06-07T07:41:58.333Z,972.22
2016-06-07T07:42:58.351Z,972.21
2016-06-07T07:43:58.354Z,972.23
2016-06-07T07:44:58.372Z,972.22
2016-06-07T07:45:58.375Z,972.24
2016-06-07T07:46:58.392Z,972.23
2016-06-07T07:47:58.412Z,972.25
2016-06-07T07:48:58.414Z,972.26
2016-06-07T07:49:58.416Z,972.23
2016-06-07T07:50:58.434Z,972.28
2016-06-07T07:51:58.453Z,972.25
2016-06-07T07:52:58.456Z,972.32
2016-06-07T07:53:58.474Z,972.29
2016-06-07T07:54:58.477Z,972.25
2016-06-07T07:55:58.495Z,972.22
2016-06-07T07:56:58.513Z,972.25
2016-06-07T07:57:58.516Z,972.22
2016-06-07T07:58:58.535Z,972.26
2016-06-07T07:59:58.538Z,972.28
2016-06-07T08:00:58.555Z,972.29
2016-06-07T08:01:58.558Z,972.29
2016-06-07T08:02:58.577Z,972.35
2016-06-07T08:03:58.594Z,972.3
2016-06-07T08:04:58.597Z,972.36
2016-06-07T08:05:58.615Z,972.3
2016-06-07T08:06:58.634Z,972.34
2016-06-07T08:07:58.638Z,972.32
2016-06-07T08:08:58.655Z,972.28
2016-06-07T08:09:58.658Z,972.34
2016-06-07T08:10:58.676Z,972.38
2016-06-07T08:11:58.679Z,972.4
2016-06-07T08:12:58.791Z,972.39
2016-06-07T08:13:58.715Z,972.45
2016-06-07T08:14:58.718Z,972.43
2016-06-07T08:15:58.736Z,972.39
2016-06-07T08:16:58.739Z,972.42
2016-06-07T08:17:58.757Z,972.48
2016-06-07T08:18:58.776Z,972.48
2016-06-07T08:19:58.779Z,972.47
2016-06-07T08:20:58.797Z,972.48
2016-06-07T08:21:58.814Z,972.42
2016-06-07T08:22:59.161Z,972.45
2016-06-07T08:23:58.837Z,972.47
2016-06-07T08:24:58.839Z,972.43
2016-06-07T08:25:58.857Z,972.4
2016-06-07T08:26:58.860Z,972.33
2016-06-07T08:27:58.878Z,972.28
2016-06-07T08:28:58.880Z,972.22
2016-06-07T08:29:58.900Z,972.21
2016-06-07T08:30:58.917Z,972.2
2016-06-07T08:31:58.920Z,972.18
2016-06-07T08:32:58.938Z,972.15
2016-06-07T08:33:58.957Z,972.17
2016-06-07T08:34:58.959Z,972.21
2016-06-07T08:35:58.977Z,972.2
2016-06-07T08:36:58.981Z,972.17
2016-06-07T08:37:59.202Z,972.2
2016-06-07T08:38:59.001Z,972.23
2016-06-07T08:39:59.020Z,972.2
2016-06-07T08:40:59.022Z,972.21
2016-06-07T08:41:59.041Z,972.22
2016-06-07T08:42:59.059Z,972.27
2016-06-07T08:43:59.062Z,972.28
2016-06-07T08:44:59.079Z,972.26
2016-06-07T08:45:59.082Z,972.31
2016-06-07T08:46:59.179Z,972.26
2016-06-07T08:47:59.120Z,972.24
2016-06-07T08:48:59.122Z,972.31
2016-06-07T08:49:59.140Z,972.28
2016-06-07T08:50:59.142Z,972.3
2016-06-07T08:51:59.162Z,972.31
2016-06-07T08:52:59.164Z,972.3
2016-06-07T08:53:59.183Z,972.36
2016-06-07T08:54:59.200Z,972.41
2016-06-07T08:55:59.203Z,972.46
2016-06-07T08:56:59.222Z,972.52
2016-06-07T08:57:59.225Z,972.59
2016-06-07T08:58:59.227Z,972.7
2016-06-07T08:59:59.245Z,972.85
2016-06-07T09:00:59.264Z,973.04
2016-06-07T09:01:59.266Z,973.04
2016-06-07T09:02:59.285Z,972.82
2016-06-07T09:03:59.288Z,973.56
2016-06-07T09:04:59.305Z,974.82
2016-06-07T09:05:59.324Z,974.31
2016-06-07T09:06:59.327Z,972.51
2016-06-07T09:08:00.126Z,972.13
2016-06-07T09:08:59.348Z,972.21
2016-06-07T09:09:59.351Z,972.24
2016-06-07T09:10:59.368Z,972.2
2016-06-07T09:11:59.372Z,972.2
2016-06-07T09:12:59.437Z,972.21
2016-06-07T09:13:59.393Z,972.16
2016-06-07T09:14:59.410Z,972.21
2016-06-07T09:15:59.413Z,972.16
2016-06-07T09:16:59.432Z,972.18
2016-06-07T09:17:59.434Z,972.18
2016-06-07T09:18:59.453Z,972.16
2016-06-07T09:19:59.456Z,972.15
2016-06-07T09:20:59.458Z,972.13
2016-06-07T09:21:59.477Z,972.12
2016-06-07T09:22:59.495Z,972.12
2016-06-07T09:23:59.497Z,972.11
2016-06-07T09:24:59.500Z,972.11
2016-06-07T09:25:59.503Z,972.06
2016-06-07T09:26:59.522Z,972.05
2016-06-07T09:27:59.540Z,972.05
2016-06-07T09:28:59.542Z,972.03
2016-06-07T09:29:59.544Z,972.04
2016-06-07T09:30:59.547Z,972.01
2016-06-07T09:31:59.567Z,971.99
2016-06-07T09:32:59.569Z,972.02
2016-06-07T09:33:59.572Z,972
2016-06-07T09:34:59.590Z,972.02
2016-06-07T09:35:59.592Z,972
2016-06-07T09:36:59.594Z,971.96
2016-06-07T09:37:59.707Z,971.96
2016-06-07T09:38:59.616Z,972.01
2016-06-07T09:39:59.618Z,971.93
2016-06-07T09:40:59.637Z,971.95
2016-06-07T09:41:59.640Z,971.95
2016-06-07T09:42:59.658Z,971.92
2016-06-07T09:43:59.660Z,971.95
2016-06-07T09:44:59.663Z,971.91
2016-06-07T09:45:59.665Z,971.91
2016-06-07T09:46:59.669Z,971.93
2016-06-07T09:47:59.687Z,971.9
2016-06-07T09:48:59.690Z,971.91
2016-06-07T09:49:59.693Z,971.9
2016-06-07T09:50:59.711Z,971.91
2016-06-07T09:51:59.714Z,971.86
2016-06-07T09:52:59.717Z,971.84
2016-06-07T09:53:59.719Z,971.86
2016-06-07T09:54:59.737Z,971.84
2016-06-07T09:55:59.740Z,971.88
2016-06-07T09:56:59.742Z,971.88
2016-06-07T09:57:59.761Z,971.89
2016-06-07T09:58:59.764Z,971.87
2016-06-07T09:59:59.766Z,971.84
2016-06-07T10:00:59.784Z,971.85
2016-06-07T10:01:59.787Z,971.86
2016-06-07T10:02:59.789Z,971.84
2016-06-07T10:04:59.795Z,971.82
2016-06-07T10:05:59.814Z,971.84
2016-06-07T10:06:59.816Z,971.8
2016-06-07T10:07:59.835Z,971.78
2016-06-07T10:08:59.838Z,971.81
2016-06-07T10:09:59.841Z,971.82
2016-06-07T10:10:59.858Z,971.78
2016-06-07T10:11:59.845Z,971.77
2016-06-07T10:12:59.863Z,971.77
2016-06-07T10:13:59.866Z,971.8
2016-06-07T10:14:59.869Z,971.74
2016-06-07T10:15:59.872Z,971.77
2016-06-07T10:16:59.890Z,971.78
2016-06-07T10:17:59.893Z,971.78
2016-06-07T10:18:59.912Z,971.76
2016-06-07T10:19:59.900Z,971.77
2016-06-07T10:20:59.918Z,971.73
2016-06-07T10:21:59.920Z,971.74
2016-06-07T10:22:59.924Z,971.68
2016-06-07T10:24:00.113Z,971.72
2016-06-07T10:24:59.943Z,971.69
2016-06-07T10:25:59.947Z,971.7
2016-06-07T10:26:59.949Z,971.68
2016-06-07T10:27:59.952Z,971.65
2016-06-07T10:28:59.970Z,971.64
2016-06-07T10:30:05.145Z,971.64
2016-06-07T10:30:59.975Z,971.65
2016-06-07T10:31:59.979Z,971.66
2016-06-07T10:32:59.996Z,971.62
2016-06-07T10:33:59.999Z,971.65
2016-06-07T10:35:00.002Z,971.63
2016-06-07T10:36:00.004Z,971.63
2016-06-07T10:37:00.007Z,971.64
2016-06-07T10:38:00.025Z,971.61
2016-06-07T10:39:00.029Z,971.62
2016-06-07T10:40:00.031Z,971.62
2016-06-07T10:41:00.034Z,971.66
2016-06-07T10:42:00.037Z,971.62
2016-06-07T10:43:00.055Z,971.61
2016-06-07T10:44:00.058Z,971.66
2016-06-07T10:45:00.061Z,971.59
2016-06-07T10:46:00.078Z,971.61
2016-06-07T10:47:00.081Z,971.57
2016-06-07T10:48:00.083Z,971.55
2016-06-07T10:49:00.087Z,971.48
2016-06-07T10:50:00.089Z,971.51
2016-06-07T10:51:00.108Z,971.5
2016-06-07T10:52:00.110Z,971.49
2016-06-07T10:53:00.113Z,971.51
2016-06-07T10:54:00.709Z,971.51
2016-06-07T10:55:00.147Z,971.53
2016-06-07T10:56:00.165Z,971.5
2016-06-07T10:57:00.182Z,971.48
2016-06-07T10:58:00.200Z,971.42
2016-06-07T10:59:00.233Z,971.39
2016-06-07T11:00:00.243Z,971.41
2016-06-07T11:01:00.250Z,971.41
2016-06-07T11:02:00.258Z,971.41
2016-06-07T11:03:00.267Z,971.4
2016-06-07T11:04:00.291Z,971.42
2016-06-07T11:05:00.296Z,971.4
2016-06-07T11:06:00.300Z,971.41
2016-06-07T11:07:00.305Z,971.37
2016-06-07T11:08:00.310Z,971.35
2016-06-07T11:09:00.346Z,971.35
2016-06-07T11:10:00.333Z,971.29
2016-06-07T11:11:00.336Z,971.33
2016-06-07T11:12:00.340Z,971.3
2016-06-07T11:13:00.454Z,971.3
2016-06-07T11:14:00.362Z,971.29
2016-06-07T11:15:00.366Z,971.27
2016-06-07T11:16:00.369Z,971.31
2016-06-07T11:17:00.388Z,971.29
2016-06-07T11:18:00.391Z,971.27
2016-06-07T11:19:00.394Z,971.23
2016-06-07T11:20:00.397Z,971.24
2016-06-07T11:21:00.400Z,971.23
2016-06-07T11:22:00.402Z,971.21
2016-06-07T11:23:00.420Z,971.25
2016-06-07T11:24:00.422Z,971.23
2016-06-07T11:25:00.425Z,971.23
2016-06-07T11:26:00.428Z,971.24
2016-06-07T11:27:00.446Z,971.24
2016-06-07T11:28:00.450Z,971.25
2016-06-07T11:29:00.452Z,971.26
2016-06-07T11:30:00.455Z,971.28
2016-06-07T11:31:00.457Z,971.22
2016-06-07T11:32:00.477Z,971.28
2016-06-07T11:33:00.479Z,971.24
2016-06-07T11:34:00.482Z,971.26
2016-06-07T11:35:00.484Z,971.28
2016-06-07T11:36:00.487Z,971.29
2016-06-07T11:37:00.489Z,971.29
2016-06-07T11:38:00.507Z,971.27
2016-06-07T11:39:00.510Z,971.28
2016-06-07T11:40:00.512Z,971.25
2016-06-07T11:41:00.515Z,971.26
2016-06-07T11:42:00.534Z,971.2
2016-06-07T11:43:00.537Z,971.2
2016-06-07T11:44:00.540Z,971.18
2016-06-07T11:45:00.542Z,971.15
2016-06-07T11:46:00.576Z,971.18
2016-06-07T11:47:00.562Z,971.19
2016-06-07T11:48:00.565Z,971.16
2016-06-07T11:49:00.568Z,971.2
2016-06-07T11:50:00.571Z,971.19
2016-06-07T11:51:00.574Z,971.16
2016-06-07T11:52:00.592Z,971.11
2016-06-07T11:53:00.595Z,971.12
2016-06-07T11:54:00.613Z,971.1
2016-06-07T11:55:00.600Z,971.1
2016-06-07T11:56:00.602Z,971.05
2016-06-07T11:57:00.622Z,971.03
2016-06-07T11:58:00.624Z,971.03
2016-06-07T11:59:00.627Z,971.03
2016-06-07T12:00:00.630Z,971.03
2016-06-07T12:01:00.647Z,971
2016-06-07T12:02:00.650Z,970.96
2016-06-07T12:03:00.652Z,970.95
2016-06-07T12:04:00.655Z,970.97
2016-06-07T12:05:00.658Z,970.97
2016-06-07T12:06:00.661Z,970.96
2016-06-07T12:07:00.680Z,970.92
2016-06-07T12:08:00.682Z,970.91
2016-06-07T12:09:00.685Z,970.92
2016-06-07T12:10:00.687Z,970.93
2016-06-07T12:11:00.690Z,970.96
2016-06-07T12:12:00.708Z,970.9
2016-06-07T12:13:00.867Z,970.9
2016-06-07T12:14:00.714Z,970.91
2016-06-07T12:15:00.717Z,970.89
2016-06-07T12:16:00.720Z,970.83
2016-06-07T12:17:00.737Z,970.82
2016-06-07T12:18:00.740Z,970.85
2016-06-07T12:19:00.743Z,970.79
2016-06-07T12:20:00.745Z,970.79
2016-06-07T12:21:00.748Z,970.82
2016-06-07T12:22:00.767Z,970.84
2016-06-07T12:23:00.770Z,970.85
2016-06-07T12:24:00.772Z,970.83
2016-06-07T12:25:00.790Z,970.87
2016-06-07T12:26:00.778Z,970.86
2016-06-07T12:27:00.780Z,970.86
2016-06-07T12:28:00.798Z,970.88
2016-06-07T12:29:00.800Z,970.87
2016-06-07T12:30:00.803Z,970.96
2016-06-07T12:31:00.806Z,970.91
2016-06-07T12:32:00.809Z,970.91
2016-06-07T12:33:00.811Z,970.93